Time;durP1;ratioP1;P1;durP2;ratioP2;P2;SDS_P1;SDS_P2;PMS_P1;PMS_P2;Temp;Humidity;BMP_temperature;BMP_pressure;BME280_temperature;BME280_humidity;BME280_pressure;Samples;Min_cycle;Max_cycle;Signal;HPM_P1;HPM_P2
2023/05/23 00:02:06;;;;;;;6.50;3.83;;;;;;;22.57;49.63;102059.63;5013265;28;20452;-34
2023/05/23 00:04:35;;;;;;;6.10;4.00;;;;;;;22.56;49.91;102071.47;5009738;28;20334;-35
2023/05/23 00:07:03;;;;;;;4.40;3.40;;;;;;;22.55;49.55;102075.16;5013333;28;20061;-35
2023/05/23 00:09:29;;;;;;;5.57;4.22;;;;;;;22.55;49.73;102075.16;5012580;28;20081;-34
2023/05/23 00:11:56;;;;;;;6.25;4.15;;;;;;;22.55;49.92;102067.06;5013685;28;20061;-34
2023/05/23 00:14:23;;;;;;;5.20;3.80;;;;;;;22.55;49.70;102068.88;5014359;28;20053;-34
2023/05/23 00:16:50;;;;;;;5.30;3.90;;;;;;;22.55;50.01;102077.88;5011429;28;20641;-36
2023/05/23 00:19:17;;;;;;;5.78;3.88;;;;;;;22.54;49.90;102081.56;5019656;28;20038;-34
2023/05/23 00:21:49;;;;;;;7.53;4.03;;;;;;;22.54;49.90;102083.41;5016042;28;20828;-34
2023/05/23 00:24:17;;;;;;;5.13;4.18;;;;;;;22.53;49.54;102082.56;5024936;28;20056;-34
2023/05/23 00:26:45;;;;;;;4.65;3.58;;;;;;;22.55;49.90;102079.69;5018478;28;20448;-35
2023/05/23 00:29:15;;;;;;;5.68;3.78;;;;;;;22.53;49.79;102085.28;5023538;28;20046;-35
2023/05/23 00:31:45;;;;;;;5.40;3.50;;;;;;;22.52;49.77;102082.72;5020106;28;20145;-34
2023/05/23 00:34:13;;;;;;;5.90;3.42;;;;;;;22.54;49.47;102088.81;5013800;28;20058;-34
2023/05/23 00:36:42;;;;;;;5.93;3.92;;;;;;;22.52;50.12;102086.28;5021007;28;20045;-34
2023/05/23 00:39:17;;;;;;;5.65;4.18;;;;;;;22.52;49.65;102091.69;5019212;28;20053;-34
2023/05/23 00:41:46;;;;;;;6.78;4.60;;;;;;;22.52;49.65;102093.53;5021078;28;20045;-35
2023/05/23 00:44:16;;;;;;;5.65;3.78;;;;;;;22.52;49.60;102096.25;5020013;28;20050;-34
2023/05/23 00:46:46;;;;;;;4.80;3.70;;;;;;;22.51;49.70;102091.81;5022253;28;20049;-35
2023/05/23 00:49:13;;;;;;;6.68;4.20;;;;;;;22.50;49.54;102095.53;5022447;28;20041;-34
2023/05/23 00:51:41;;;;;;;5.93;3.63;;;;;;;22.50;49.74;102103.63;5020624;28;20448;-34
2023/05/23 00:54:08;;;;;;;8.23;4.03;;;;;;;22.48;49.47;102093.00;5033564;28;20056;-35
2023/05/23 00:56:37;;;;;;;6.63;4.22;;;;;;;22.47;50.00;102098.53;5020776;28;20045;-33
2023/05/23 00:59:05;;;;;;;7.82;4.07;;;;;;;22.47;49.78;102099.38;5020315;28;20099;-34
2023/05/23 01:01:32;;;;;;;5.13;3.70;;;;;;;22.46;49.99;102100.38;5024911;28;20049;-34
2023/05/23 01:03:58;;;;;;;5.03;3.80;;;;;;;22.45;49.64;102098.69;5016424;28;20650;-34
2023/05/23 01:06:29;;;;;;;6.03;3.70;;;;;;;22.45;49.70;102092.44;5012555;28;20052;-34
2023/05/23 01:08:55;;;;;;;5.22;3.88;;;;;;;22.44;49.92;102091.59;5015774;28;20042;-34
2023/05/23 01:11:31;;;;;;;4.70;3.63;;;;;;;22.42;49.73;102105.25;5013410;28;20042;-35
2023/05/23 01:14:22;;;;;;;4.65;3.60;;;;;;;22.41;49.63;102100.84;5034438;28;20148;-34
2023/05/23 01:17:00;;;;;;;7.60;3.55;;;;;;;22.42;49.54;102113.34;5010455;28;20183;-35
2023/05/23 01:19:39;;;;;;;5.20;3.70;;;;;;;22.41;49.67;102117.06;5015536;28;20095;-34
2023/05/23 01:22:15;;;;;;;5.85;3.83;;;;;;;22.41;49.84;102100.00;5013970;28;20152;-34
2023/05/23 01:25:06;;;;;;;6.47;3.55;;;;;;;22.39;50.11;102110.09;5012537;28;20077;-34
2023/05/23 01:27:51;;;;;;;4.80;3.60;;;;;;;22.39;49.78;102110.09;5009707;28;20457;-35
2023/05/23 01:30:19;;;;;;;5.32;3.30;;;;;;;22.39;49.73;102110.97;5013797;28;20133;-34
2023/05/23 01:32:49;;;;;;;4.22;3.30;;;;;;;22.39;49.90;102099.28;5012973;28;20053;-34
2023/05/23 01:35:27;;;;;;;6.22;3.53;;;;;;;22.37;49.91;102117.50;5016735;28;20103;-35
2023/05/23 01:37:55;;;;;;;4.72;3.45;;;;;;;22.36;49.65;102113.13;5016933;28;20417;-34
2023/05/23 01:40:22;;;;;;;6.65;3.90;;;;;;;22.36;49.69;102110.41;5018015;28;20788;-34
2023/05/23 01:42:50;;;;;;;5.68;3.42;;;;;;;22.35;49.68;102112.28;5022597;28;20136;-34
2023/05/23 01:45:17;;;;;;;4.65;3.13;;;;;;;22.34;49.90;102118.66;5016634;28;20077;-34
2023/05/23 01:47:47;;;;;;;5.80;3.60;;;;;;;22.34;49.87;102115.09;5016951;28;20084;-35
2023/05/23 01:50:15;;;;;;;5.07;3.28;;;;;;;22.33;49.79;102122.38;5018125;28;20081;-34
2023/05/23 01:52:42;;;;;;;5.28;3.85;;;;;;;22.32;49.50;102114.44;5018273;28;20123;-34
2023/05/23 01:55:10;;;;;;;4.30;3.33;;;;;;;22.33;50.06;102118.81;5018849;28;20128;-34
2023/05/23 01:57:37;;;;;;;6.18;3.53;;;;;;;22.32;50.03;102122.53;5024543;28;20077;-34
2023/05/23 02:00:06;;;;;;;5.82;3.47;;;;;;;22.31;49.98;102118.97;5021894;28;20057;-34
2023/05/23 02:02:33;;;;;;;4.63;3.55;;;;;;;22.30;49.67;102119.97;5018991;28;20599;-34
2023/05/23 02:04:59;;;;;;;5.13;3.47;;;;;;;22.30;50.13;102117.25;5017809;28;20088;-34
2023/05/23 02:07:26;;;;;;;4.82;3.30;;;;;;;22.30;49.62;102121.81;5020507;28;20054;-34
2023/05/23 02:09:55;;;;;;;4.88;3.55;;;;;;;22.29;49.55;102112.03;5021952;28;20081;-34
2023/05/23 02:12:22;;;;;;;5.35;3.60;;;;;;;22.29;49.99;102109.31;5023640;28;20116;-34
2023/05/23 02:14:51;;;;;;;4.78;3.17;;;;;;;22.29;49.50;102109.31;5020500;28;20092;-34
2023/05/23 02:17:17;;;;;;;5.35;3.63;;;;;;;22.28;49.67;102108.47;5018976;28;20050;-34
2023/05/23 02:19:44;;;;;;;4.70;3.60;;;;;;;22.27;49.67;102108.59;5016727;28;20061;-34
2023/05/23 02:22:10;;;;;;;4.93;3.40;;;;;;;22.27;49.87;102117.59;5016944;28;20741;-36
2023/05/23 02:24:37;;;;;;;4.85;3.30;;;;;;;22.27;49.69;102116.72;5021862;28;20504;-34
2023/05/23 02:27:04;;;;;;;6.10;3.75;;;;;;;22.27;49.76;102116.72;5023200;28;20075;-35
2023/05/23 02:29:31;;;;;;;4.70;3.28;;;;;;;22.26;49.91;102129.38;5019421;28;20100;-34
2023/05/23 02:31:58;;;;;;;5.60;3.42;;;;;;;22.25;49.59;102133.06;5021110;28;20050;-34
2023/05/23 02:34:25;;;;;;;3.97;3.00;;;;;;;22.25;49.50;102137.63;5019747;28;20148;-34
2023/05/23 02:36:51;;;;;;;5.70;3.72;;;;;;;22.25;49.82;102132.22;5021781;28;20050;-34
2023/05/23 02:39:18;;;;;;;4.70;3.30;;;;;;;22.25;49.85;102143.03;5022107;28;20041;-37
2023/05/23 02:41:44;;;;;;;4.70;3.25;;;;;;;22.24;50.00;102134.09;5021297;28;20132;-34
2023/05/23 02:44:11;;;;;;;5.68;3.35;;;;;;;22.23;49.86;102137.78;5024029;28;20128;-34
2023/05/23 02:46:37;;;;;;;5.00;3.22;;;;;;;22.23;49.76;102139.63;5026304;28;20118;-34
2023/05/23 02:49:04;;;;;;;4.25;3.30;;;;;;;22.23;49.79;102142.31;5021518;28;20050;-34
2023/05/23 02:51:31;;;;;;;5.00;3.70;;;;;;;22.22;49.80;102146.03;5023876;28;20095;-34
2023/05/23 02:53:58;;;;;;;6.40;3.63;;;;;;;22.22;49.88;102157.69;5020618;28;20129;-34
2023/05/23 02:56:25;;;;;;;4.03;3.40;;;;;;;22.21;49.84;102147.88;5024909;28;20427;-34
2023/05/23 02:58:52;;;;;;;5.38;3.53;;;;;;;22.19;49.82;102149.88;5027037;28;20073;-34
2023/05/23 03:01:19;;;;;;;5.65;3.67;;;;;;;22.19;49.84;102152.56;5022636;28;20042;-34
2023/05/23 03:03:45;;;;;;;4.63;3.22;;;;;;;22.18;49.69;102151.72;5020068;28;20099;-34
2023/05/23 03:06:13;;;;;;;5.28;3.45;;;;;;;22.17;49.79;102158.13;5018795;28;20061;-34
2023/05/23 03:08:40;;;;;;;5.78;4.07;;;;;;;22.17;49.83;102155.44;5017687;28;20041;-36
2023/05/23 03:11:07;;;;;;;4.82;3.47;;;;;;;22.16;50.08;102159.13;5021044;28;20077;-34
2023/05/23 03:13:34;;;;;;;5.43;3.55;;;;;;;22.16;49.95;102152.88;5016210;28;20142;-34
2023/05/23 03:16:01;;;;;;;6.30;3.10;;;;;;;22.16;49.67;102151.03;5018316;28;20137;-34
2023/05/23 03:18:28;;;;;;;4.47;2.95;;;;;;;22.15;49.87;102148.47;5014618;28;20100;-34
2023/05/23 03:20:54;;;;;;;6.03;3.42;;;;;;;22.14;49.80;102153.00;5014382;28;20511;-34
2023/05/23 03:23:21;;;;;;;4.43;3.28;;;;;;;22.14;49.75;102150.31;5012981;28;20083;-36
2023/05/23 03:25:48;;;;;;;5.45;3.60;;;;;;;22.14;50.05;102155.72;5016755;28;20053;-34
2023/05/23 03:28:14;;;;;;;5.70;3.55;;;;;;;22.13;49.83;102166.69;5009660;28;20054;-34
2023/05/23 03:30:41;;;;;;;5.40;3.17;;;;;;;22.12;50.01;102164.94;5015752;28;20077;-34
2023/05/23 03:33:08;;;;;;;4.93;3.00;;;;;;;22.12;49.93;102162.25;5015871;28;20049;-35
2023/05/23 03:35:34;;;;;;;5.80;3.47;;;;;;;22.12;50.19;102170.34;5016783;28;20045;-34
2023/05/23 03:38:01;;;;;;;3.78;2.90;;;;;;;22.10;49.71;102167.78;5021394;28;20057;-34
2023/05/23 03:40:28;;;;;;;5.65;3.35;;;;;;;22.10;49.89;102161.53;5021335;28;20081;-34
2023/05/23 03:43:12;;;;;;;3.80;3.13;;;;;;;22.08;49.69;102167.09;5030341;28;21442;-34
2023/05/23 03:45:39;;;;;;;4.15;3.47;;;;;;;22.09;50.15;102167.94;5020183;28;20054;-34
2023/05/23 03:48:06;;;;;;;5.10;3.65;;;;;;;22.08;49.81;102175.19;5022491;28;20056;-34
2023/05/23 03:50:33;;;;;;;6.57;3.25;;;;;;;22.08;49.85;102183.28;5018528;28;20449;-34
2023/05/23 03:52:59;;;;;;;7.85;3.60;;;;;;;22.07;50.42;102184.31;5017347;28;20172;-34
2023/05/23 03:55:26;;;;;;;6.72;2.97;;;;;;;22.06;50.00;102185.28;5017275;28;20053;-35
2023/05/23 03:57:53;;;;;;;6.30;3.38;;;;;;;22.05;49.79;102188.13;5015422;28;20116;-34
2023/05/23 04:00:19;;;;;;;6.55;3.58;;;;;;;22.04;49.99;102190.00;5019063;28;20049;-34
2023/05/23 04:02:46;;;;;;;12.77;5.38;;;;;;;22.03;49.93;102191.00;5012600;28;20056;-34
2023/05/23 04:05:13;;;;;;;8.95;4.18;;;;;;;22.05;50.16;102196.25;5014055;28;20081;-34
2023/05/23 04:07:40;;;;;;;11.63;4.10;;;;;;;22.03;50.13;102198.22;5017272;28;20087;-34
2023/05/23 04:10:08;;;;;;;7.22;4.38;;;;;;;22.02;50.11;102202.78;5016734;28;20515;-35
2023/05/23 04:12:35;;;;;;;8.20;4.05;;;;;;;22.01;50.00;102205.63;5014160;28;20185;-34
2023/05/23 04:15:02;;;;;;;10.57;4.70;;;;;;;22.00;50.14;102212.88;5013075;28;20081;-34
2023/05/23 04:17:30;;;;;;;9.60;4.88;;;;;;;22.00;50.18;102212.03;5012872;28;20060;-34
2023/05/23 04:19:57;;;;;;;13.80;4.60;;;;;;;21.98;50.34;102220.25;5020661;28;20049;-34
2023/05/23 04:22:23;;;;;;;10.68;4.65;;;;;;;21.98;49.99;102220.25;5021005;28;20077;-34
2023/05/23 04:24:50;;;;;;;12.77;4.93;;;;;;;21.97;50.03;102226.66;5019410;28;20065;-34
2023/05/23 04:27:17;;;;;;;11.07;4.80;;;;;;;21.95;49.90;102228.69;5019662;28;20084;-34
2023/05/23 04:29:45;;;;;;;12.70;4.97;;;;;;;21.95;50.11;102225.97;5019780;28;20053;-37
2023/05/23 04:32:13;;;;;;;11.18;4.72;;;;;;;21.95;50.01;102231.38;5019785;28;20053;-34
2023/05/23 04:34:40;;;;;;;9.65;4.65;;;;;;;21.93;49.95;102222.56;5014165;28;20049;-35
2023/05/23 04:37:08;;;;;;;9.95;4.55;;;;;;;21.93;49.81;102234.22;5028285;28;20136;-34
2023/05/23 04:39:34;;;;;;;11.85;5.13;;;;;;;21.92;49.94;102227.09;5028006;28;20124;-34
2023/05/23 04:42:01;;;;;;;13.15;4.82;;;;;;;21.92;50.12;102223.56;5020997;28;20060;-35
2023/05/23 04:44:29;;;;;;;13.82;5.80;;;;;;;21.91;50.22;102230.81;5019545;28;20334;-34
2023/05/23 04:46:56;;;;;;;19.83;5.68;;;;;;;21.91;50.25;102233.50;5019497;28;20056;-34
2023/05/23 04:49:22;;;;;;;18.17;5.93;;;;;;;21.91;50.39;102241.63;5025071;28;20049;-35
2023/05/23 04:51:49;;;;;;;15.55;5.60;;;;;;;21.91;50.71;102249.72;5027690;28;20107;-34
2023/05/23 04:54:16;;;;;;;10.93;5.13;;;;;;;21.91;50.75;102246.16;5023392;28;20061;-34
2023/05/23 04:56:43;;;;;;;19.58;5.63;;;;;;;21.90;50.88;102256.09;5020758;28;20054;-34
2023/05/23 04:59:10;;;;;;;14.50;5.55;;;;;;;21.90;50.97;102249.84;5018625;28;20049;-34
2023/05/23 05:01:39;;;;;;;13.98;6.50;;;;;;;21.89;51.35;102256.25;5020934;28;20474;-33
2023/05/23 05:04:06;;;;;;;23.15;8.80;;;;;;;21.90;51.38;102255.25;5019682;28;20103;-32
2023/05/23 05:06:33;;;;;;;17.10;7.60;;;;;;;21.90;51.31;102263.34;5021109;28;20429;-33
2023/05/23 05:09:00;;;;;;;16.10;7.97;;;;;;;21.89;51.32;102267.88;5013735;28;20088;-33
2023/05/23 05:11:27;;;;;;;21.00;7.70;;;;;;;21.89;51.19;102270.59;5011440;28;20081;-32
2023/05/23 05:13:54;;;;;;;23.17;7.53;;;;;;;21.89;51.56;102277.84;5019539;28;20053;-33
2023/05/23 05:16:21;;;;;;;20.63;6.75;;;;;;;21.90;51.58;102282.22;5017438;28;20113;-34
2023/05/23 05:18:47;;;;;;;12.10;6.28;;;;;;;21.90;51.39;102284.94;5026909;28;20050;-33
2023/05/23 05:21:14;;;;;;;20.00;8.10;;;;;;;21.91;51.46;102283.97;5013521;28;20108;-33
2023/05/23 05:23:40;;;;;;;16.77;7.60;;;;;;;21.91;51.11;102284.81;5021587;28;20140;-32
2023/05/23 05:26:07;;;;;;;20.75;8.35;;;;;;;21.92;51.18;102293.75;5018718;28;20104;-33
2023/05/23 05:28:34;;;;;;;15.00;6.93;;;;;;;21.92;51.25;102299.16;5018047;28;20151;-33
2023/05/23 05:31:03;;;;;;;14.70;7.45;;;;;;;21.92;51.37;102297.31;5022521;28;20045;-33
2023/05/23 05:33:34;;;;;;;15.02;6.97;;;;;;;21.93;50.87;102298.16;5016019;28;20077;-33
2023/05/23 05:36:02;;;;;;;14.15;7.40;;;;;;;21.93;51.40;102308.94;5022473;28;20417;-33
2023/05/23 05:38:29;;;;;;;15.63;7.78;;;;;;;21.93;51.24;102303.53;5020781;28;20164;-33
2023/05/23 05:40:56;;;;;;;14.40;6.65;;;;;;;21.93;51.07;102309.78;5025169;28;20088;-34
2023/05/23 05:43:22;;;;;;;16.13;7.07;;;;;;;21.93;51.11;102312.50;5018251;28;20312;-32
2023/05/23 05:45:49;;;;;;;15.23;6.85;;;;;;;21.93;50.78;102319.75;5017708;28;20058;-33
2023/05/23 05:48:16;;;;;;;15.23;7.47;;;;;;;21.93;50.97;102326.00;5019758;28;20041;-33
2023/05/23 05:50:46;;;;;;;17.67;7.80;;;;;;;21.92;51.08;102320.75;5018785;28;20053;-33
2023/05/23 05:53:13;;;;;;;20.77;8.25;;;;;;;21.93;50.97;102330.53;5023377;28;20081;-33
2023/05/23 05:55:39;;;;;;;16.48;7.35;;;;;;;21.92;51.00;102332.41;5017989;28;20046;-32
2023/05/23 05:58:06;;;;;;;13.68;6.85;;;;;;;21.92;50.87;102339.66;5019954;28;20049;-33
2023/05/23 06:00:40;;;;;;;16.02;7.45;;;;;;;21.92;51.00;102334.25;5021615;28;20077;-33
2023/05/23 06:03:08;;;;;;;14.05;6.65;;;;;;;21.92;51.52;102336.94;5019809;28;20049;-34
2023/05/23 06:05:36;;;;;;;11.38;6.47;;;;;;;21.91;50.71;102340.66;5019884;28;20045;-33
2023/05/23 06:08:03;;;;;;;16.00;6.72;;;;;;;21.92;50.88;102336.94;5023116;28;20046;-33
2023/05/23 06:10:30;;;;;;;15.63;7.68;;;;;;;21.91;51.14;102336.09;5017180;28;20034;-33
2023/05/23 06:12:58;;;;;;;11.23;6.72;;;;;;;21.91;50.85;102340.66;5020246;28;20061;-33
2023/05/23 06:15:25;;;;;;;14.07;7.50;;;;;;;21.90;50.29;102341.63;5038094;28;20104;-34
2023/05/23 06:17:51;;;;;;;12.40;6.65;;;;;;;21.90;50.68;102342.47;5020337;28;20108;-34
2023/05/23 06:20:18;;;;;;;12.98;6.30;;;;;;;21.90;50.97;102347.88;5019263;28;20081;-33
2023/05/23 06:22:45;;;;;;;14.70;6.95;;;;;;;21.90;50.72;102341.63;5020054;28;20124;-34
2023/05/23 06:25:12;;;;;;;13.95;7.32;;;;;;;21.89;50.91;102348.03;5019658;28;20495;-34
2023/05/23 06:27:40;;;;;;;14.35;6.72;;;;;;;21.86;50.63;102341.03;5033636;28;20049;-33
2023/05/23 06:30:07;;;;;;;13.60;7.22;;;;;;;21.88;50.77;102343.63;5020303;28;20185;-33
2023/05/23 06:32:34;;;;;;;12.68;6.60;;;;;;;21.86;50.92;102345.59;5021651;28;20053;-33
2023/05/23 06:35:00;;;;;;;13.25;6.65;;;;;;;21.86;50.67;102340.19;5022434;28;20049;-33
2023/05/23 06:37:27;;;;;;;13.07;7.38;;;;;;;21.85;50.63;102343.91;5019461;28;20131;-33
2023/05/23 06:39:53;;;;;;;16.20;7.32;;;;;;;21.84;50.76;102350.31;5024314;28;20053;-33
2023/05/23 06:42:20;;;;;;;14.82;6.60;;;;;;;21.84;50.72;102339.50;5022366;28;20049;-34
2023/05/23 06:44:47;;;;;;;11.75;6.32;;;;;;;21.84;50.65;102342.22;5023943;28;20054;-33
2023/05/23 06:47:13;;;;;;;12.15;5.97;;;;;;;21.83;50.75;102345.88;5021227;28;20054;-34
2023/05/23 06:49:40;;;;;;;12.70;7.18;;;;;;;21.83;50.75;102351.28;5021755;28;20045;-34
2023/05/23 06:52:06;;;;;;;14.95;6.72;;;;;;;21.82;50.62;102355.81;5022070;28;20049;-33
2023/05/23 06:54:33;;;;;;;12.50;6.68;;;;;;;21.82;50.60;102368.47;5024331;28;20091;-34
2023/05/23 06:57:00;;;;;;;15.38;7.18;;;;;;;21.81;50.58;102359.53;5022311;28;20157;-33
2023/05/23 06:59:26;;;;;;;11.65;6.75;;;;;;;21.81;50.67;102364.06;5020395;28;20132;-34
2023/05/23 07:01:53;;;;;;;13.43;7.10;;;;;;;21.81;50.70;102369.47;5021937;28;20544;-34
2023/05/23 07:04:19;;;;;;;12.07;6.38;;;;;;;21.81;50.48;102361.38;5019793;28;20057;-34
2023/05/23 07:06:46;;;;;;;13.20;6.25;;;;;;;21.81;50.65;102356.81;5022126;28;20061;-34
2023/05/23 07:09:13;;;;;;;10.65;6.25;;;;;;;21.82;50.49;102363.06;5027767;28;20497;-35
2023/05/23 07:11:40;;;;;;;10.63;5.30;;;;;;;21.83;50.70;102368.34;5040945;28;20077;-34
2023/05/23 07:14:06;;;;;;;11.23;6.00;;;;;;;21.84;50.80;102366.50;5021408;28;20060;-35
2023/05/23 07:16:33;;;;;;;11.38;5.93;;;;;;;21.86;50.41;102370.75;5019204;28;20050;-34
2023/05/23 07:19:01;;;;;;;9.15;5.22;;;;;;;21.86;50.42;102368.03;5025179;28;20103;-34
2023/05/23 07:21:28;;;;;;;8.82;5.30;;;;;;;21.89;50.42;102377.72;5027127;28;20045;-33
2023/05/23 07:23:55;;;;;;;10.70;5.88;;;;;;;21.89;50.56;102377.72;5025760;28;20153;-34
2023/05/23 07:26:21;;;;;;;9.85;5.60;;;;;;;21.90;50.16;102379.41;5022502;28;20077;-33
2023/05/23 07:28:49;;;;;;;9.98;5.00;;;;;;;21.90;50.31;102379.41;5019311;28;20072;-34
2023/05/23 07:31:15;;;;;;;8.50;5.40;;;;;;;21.92;50.26;102382.84;5018356;28;20049;-33
2023/05/23 07:33:42;;;;;;;11.35;5.32;;;;;;;21.92;50.04;102388.25;5028545;28;20061;-34
2023/05/23 07:36:10;;;;;;;11.55;5.57;;;;;;;21.91;50.02;102382.00;5029362;28;20050;-33
2023/05/23 07:38:36;;;;;;;10.80;5.40;;;;;;;21.92;49.94;102386.38;5025455;28;20062;-33
2023/05/23 07:41:03;;;;;;;9.00;5.18;;;;;;;21.94;50.18;102387.09;5020825;28;20255;-34
2023/05/23 07:43:38;;;;;;;11.35;5.88;;;;;;;21.95;50.09;102396.06;5021797;28;20045;-33
2023/05/23 07:46:04;;;;;;;11.07;5.03;;;;;;;21.97;50.10;102385.97;5022968;28;20057;-34
2023/05/23 07:48:31;;;;;;;11.70;5.35;;;;;;;21.99;50.06;102388.50;5020334;28;20452;-34
2023/05/23 07:50:58;;;;;;;8.40;5.03;;;;;;;22.02;49.80;102383.69;5023368;28;20045;-33
2023/05/23 07:53:24;;;;;;;8.85;5.22;;;;;;;22.02;50.15;102394.47;5022671;28;20414;-34
2023/05/23 07:55:51;;;;;;;10.02;5.65;;;;;;;22.05;49.68;102387.94;5020686;28;20387;-34
2023/05/23 07:58:18;;;;;;;11.85;5.63;;;;;;;22.06;49.76;102401.28;5017685;28;20345;-35
2023/05/23 08:00:45;;;;;;;9.07;5.07;;;;;;;22.07;49.78;102396.75;5024086;28;20053;-33
2023/05/23 08:03:12;;;;;;;10.43;4.85;;;;;;;22.07;49.77;102399.44;5024851;28;20045;-34
2023/05/23 08:05:39;;;;;;;12.18;5.13;;;;;;;22.08;49.62;102402.03;5020787;28;20077;-33
2023/05/23 08:08:05;;;;;;;11.38;4.95;;;;;;;22.08;49.53;102404.72;5022775;28;20058;-33
2023/05/23 08:10:32;;;;;;;13.60;5.60;;;;;;;22.09;49.56;102411.81;5014698;28;20116;-34
2023/05/23 08:12:59;;;;;;;10.00;4.97;;;;;;;22.09;49.50;102406.41;5022759;28;20073;-33
2023/05/23 08:15:27;;;;;;;9.63;5.03;;;;;;;22.11;49.54;102404.44;5018629;28;20054;-33
2023/05/23 08:17:55;;;;;;;8.88;5.18;;;;;;;22.13;49.58;102404.31;5021788;28;20137;-34
2023/05/23 08:20:29;;;;;;;10.73;4.72;;;;;;;22.14;49.61;102409.56;5020909;28;20054;-33
2023/05/23 08:23:00;;;;;;;10.48;4.43;;;;;;;22.15;49.57;102414.00;5024378;28;20107;-34
2023/05/23 08:25:31;;;;;;;8.27;4.40;;;;;;;22.17;49.09;102416.53;5024388;28;20046;-33
2023/05/23 08:27:59;;;;;;;9.45;5.22;;;;;;;22.18;49.20;102427.19;5023466;28;20061;-34
2023/05/23 08:30:26;;;;;;;7.60;4.35;;;;;;;22.18;49.54;102424.50;5019863;28;20289;-33
2023/05/23 08:32:54;;;;;;;7.47;4.43;;;;;;;22.21;49.25;102427.91;5020436;28;20054;-33
2023/05/23 08:35:21;;;;;;;11.25;4.25;;;;;;;22.21;49.40;102428.75;5020920;28;20129;-34
2023/05/23 08:37:49;;;;;;;7.80;4.00;;;;;;;22.24;49.32;102412.28;5023101;28;20045;-34
2023/05/23 08:40:21;;;;;;;8.57;4.32;;;;;;;22.25;49.31;102422.09;5026949;28;20050;-33
2023/05/23 08:42:49;;;;;;;6.90;4.13;;;;;;;22.26;49.12;102417.53;5020126;28;20108;-33
2023/05/23 08:45:17;;;;;;;10.40;3.97;;;;;;;22.28;48.91;102424.50;5018980;28;20128;-33
2023/05/23 08:47:45;;;;;;;7.75;4.13;;;;;;;22.30;49.01;102427.06;5024661;28;20102;-34
2023/05/23 08:50:14;;;;;;;7.60;4.10;;;;;;;22.30;49.13;102429.75;5024161;28;20427;-33
2023/05/23 08:53:02;;;;;;;7.38;3.83;;;;;;;22.30;48.55;102433.31;5025884;28;20054;-33
2023/05/23 08:55:31;;;;;;;9.32;4.28;;;;;;;22.33;48.79;102434.88;5038045;28;20077;-34
2023/05/23 08:58:02;;;;;;;11.70;4.72;;;;;;;22.34;48.72;102433.88;5019765;28;20104;-33
2023/05/23 09:00:29;;;;;;;7.35;4.20;;;;;;;22.35;48.90;102438.28;5022593;28;20065;-33
2023/05/23 09:02:56;;;;;;;8.57;4.05;;;;;;;22.36;49.02;102434.59;5024753;28;20089;-33
2023/05/23 09:05:25;;;;;;;8.02;3.85;;;;;;;22.37;48.76;102434.44;5022162;28;20107;-34
2023/05/23 09:07:52;;;;;;;9.65;4.57;;;;;;;22.39;49.06;102440.56;5020468;28;20148;-33
2023/05/23 09:10:21;;;;;;;8.73;4.00;;;;;;;22.42;48.77;102434.00;5032716;28;20092;-33
2023/05/23 09:12:48;;;;;;;7.75;3.70;;;;;;;22.45;48.48;102443.69;5016907;28;20092;-33
2023/05/23 09:15:15;;;;;;;11.27;4.80;;;;;;;22.47;48.53;102449.78;5022800;28;20472;-33
2023/05/23 09:17:44;;;;;;;7.32;3.83;;;;;;;22.48;48.41;102460.47;5019740;28;20049;-33
2023/05/23 09:20:14;;;;;;;8.07;4.07;;;;;;;22.48;48.12;102452.34;5020084;28;20045;-34
2023/05/23 09:22:46;;;;;;;9.88;4.22;;;;;;;22.52;48.29;102461.03;5019933;28;20045;-33
2023/05/23 09:25:13;;;;;;;8.52;3.85;;;;;;;22.53;48.49;102462.72;5019715;28;20046;-34
2023/05/23 09:27:40;;;;;;;9.85;3.67;;;;;;;22.54;48.56;102459.03;5016566;28;20080;-34
2023/05/23 09:30:09;;;;;;;7.05;3.00;;;;;;;22.56;48.30;102471.41;5018153;28;20050;-33
2023/05/23 09:32:36;;;;;;;7.00;3.35;;;;;;;22.58;47.81;102466.69;5020519;28;20407;-33
2023/05/23 09:35:05;;;;;;;7.97;2.92;;;;;;;22.60;48.39;102471.97;5019785;28;20045;-34
2023/05/23 09:37:34;;;;;;;11.60;3.85;;;;;;;22.62;48.11;102467.25;5021804;28;20338;-33
2023/05/23 09:40:09;;;;;;;6.93;3.20;;;;;;;22.63;47.99;102469.84;5021586;28;20081;-34
2023/05/23 09:42:42;;;;;;;7.40;2.92;;;;;;;22.65;47.65;102466.97;5022135;28;20192;-33
2023/05/23 09:45:10;;;;;;;5.53;2.92;;;;;;;22.67;47.75;102471.25;5019308;28;20455;-34
2023/05/23 09:47:37;;;;;;;7.53;3.33;;;;;;;22.69;47.42;102464.84;5018532;28;20505;-34
2023/05/23 09:50:04;;;;;;;5.88;2.75;;;;;;;22.70;47.46;102469.25;5018208;28;20049;-33
2023/05/23 09:52:37;;;;;;;6.22;2.80;;;;;;;22.71;47.66;102465.53;5020150;28;20390;-34
2023/05/23 09:55:05;;;;;;;8.13;3.22;;;;;;;22.73;47.55;102474.38;5024327;28;20089;-33
2023/05/23 09:57:39;;;;;;;8.27;3.40;;;;;;;22.74;47.17;102465.25;5018919;28;20119;-33
2023/05/23 10:00:12;;;;;;;7.55;3.63;;;;;;;22.74;47.69;102471.50;5021586;28;20046;-34
2023/05/23 10:02:58;;;;;;;;;;;;;;;22.74;47.42;102476.91;5019468;28;20053;-34
2023/05/23 10:05:46;;;;;;;5.90;2.75;;;;;;;22.77;47.23;102471.22;5015537;28;19956;-33
2023/05/23 10:08:35;;;;;;;6.18;2.67;;;;;;;22.77;47.48;102476.63;5022757;28;20050;-34
2023/05/23 10:11:25;;;;;;;5.68;2.83;;;;;;;22.80;47.22;102481.75;5020323;28;20077;-33
2023/05/23 10:13:52;;;;;;;7.82;2.80;;;;;;;22.83;47.44;102476.03;5023860;28;20045;-33
2023/05/23 10:17:10;;;;;;;6.22;2.85;;;;;;;22.85;47.18;102474.06;5021050;28;20091;-34
2023/05/23 10:19:46;;;;;;;6.90;2.50;;;;;;;22.89;47.39;102480.88;5032690;28;20357;-34
2023/05/23 10:22:14;;;;;;;5.82;2.88;;;;;;;22.90;47.45;102489.81;5026462;28;20049;-34
2023/05/23 10:24:43;;;;;;;6.75;2.50;;;;;;;22.90;47.44;102484.41;5026773;28;20089;-34
2023/05/23 10:27:10;;;;;;;5.75;2.88;;;;;;;22.92;47.16;102489.75;5019532;28;20057;-34
2023/05/23 10:29:37;;;;;;;5.20;2.50;;;;;;;22.90;47.32;102488.00;5025116;28;20389;-33
2023/05/23 10:32:05;;;;;;;5.53;2.60;;;;;;;22.93;47.25;102499.53;5028637;28;20045;-34
2023/05/23 10:35:09;;;;;;;6.18;2.67;;;;;;;22.90;47.36;102490.72;5027258;28;20050;-34
2023/05/23 10:37:39;;;;;;;6.88;2.63;;;;;;;22.92;47.01;102493.28;5026227;28;20080;-34
2023/05/23 10:40:37;;;;;;;6.75;2.90;;;;;;;22.91;47.31;102494.25;5022003;28;20466;-34
2023/05/23 10:43:37;;;;;;;6.28;2.10;;;;;;;22.92;47.33;102496.00;5022959;28;20053;-33
2023/05/23 10:46:07;;;;;;;4.97;2.40;;;;;;;22.95;47.17;102494.81;5015897;28;20061;-33
2023/05/23 10:48:39;;;;;;;4.47;2.50;;;;;;;22.95;47.25;102495.69;5024370;28;20049;-34
2023/05/23 10:51:08;;;;;;;4.45;2.20;;;;;;;22.96;47.12;102496.56;5021283;28;20080;-34
2023/05/23 10:53:40;;;;;;;6.68;2.45;;;;;;;22.95;47.10;102492.97;5021725;28;20447;-33
2023/05/23 10:56:08;;;;;;;4.93;2.25;;;;;;;22.97;47.59;102500.97;5024423;28;20433;-34
2023/05/23 10:58:37;;;;;;;5.45;2.50;;;;;;;22.97;47.07;102495.56;5023636;28;20388;-34
2023/05/23 11:01:12;;;;;;;5.28;2.92;;;;;;;22.98;47.11;102497.25;5021060;28;20073;-34
2023/05/23 11:03:44;;;;;;;5.97;2.53;;;;;;;22.98;47.26;102499.94;5025930;28;20058;-33
2023/05/23 11:06:28;;;;;;;7.85;2.72;;;;;;;22.97;46.96;102496.41;5022027;28;20046;-34
2023/05/23 11:09:08;;;;;;;7.07;2.70;;;;;;;22.98;47.59;102502.66;5021905;28;20054;-34
2023/05/23 11:11:53;;;;;;;4.57;1.90;;;;;;;22.98;47.36;102502.66;5019507;28;20483;-34
2023/05/23 11:14:33;;;;;;;13.00;2.90;;;;;;;22.98;47.11;102506.22;5033020;28;20129;-34
2023/05/23 11:17:13;;;;;;;4.20;2.40;;;;;;;22.98;46.71;102508.06;5022437;28;20045;-34
2023/05/23 11:20:07;;;;;;;5.35;2.22;;;;;;;22.98;46.39;102511.63;5023512;28;20144;-33
2023/05/23 11:22:35;;;;;;;5.00;2.25;;;;;;;23.00;46.76;102504.22;5023204;28;20053;-33
2023/05/23 11:25:09;;;;;;;7.75;2.70;;;;;;;23.00;47.23;102493.41;5025424;28;20054;-34
2023/05/23 11:27:38;;;;;;;4.93;2.45;;;;;;;23.02;47.47;102494.09;5018240;28;20135;-33
2023/05/23 11:30:12;;;;;;;7.97;2.40;;;;;;;23.06;46.89;102503.63;5024507;28;20053;-33
2023/05/23 11:32:40;;;;;;;4.47;1.90;;;;;;;23.10;47.14;102499.63;5021580;28;20058;-33